EBAW

EBAW 050350Z AUTO 10005KT CAVOK 03/M02 Q1021

TAF TAF EBAW 251700Z 2518/2606 11007KT CAVOK PROB30 TEMPO 2518/2520 VRB15G30KT 3500 SHRA TSRA

EHWO

EHWO 050355Z AUTO 09006KT 9999 NCD 04/M01 Q1021 BLU

TAF EHWO 030849Z 0309/0321 28012KT 9999 SCT016 BECMG 0309/0311 29012G22KT SCT020 PROB30 TEMPO 0309/0315 30012G24KT BECMG 0315/0318 30007KT BECMG 0318/0321 VRB02KT

EBBL

EBBL 050355Z AUTO 09003KT 9999 NCD 05/M00 Q1022 BLU

TAF EBBL 171541Z 1719/1807 21010KT 9999 SCT180 BECMG 1802/1805 FEW300

Always consult the official METAR resources.